Parc Calderonas, Puerto Rico
Current Conditions -  °F | °C
As of 8:53 AM on Friday 31 Oct 2014 (Local Time) from TJNR Reporting Station
Scattered Clouds Scattered Clouds  
Wind Chill: 83°   Ceiling: Unl
Heat Index: 93°   Visibility: 10mi
Dew Point: 78°   Wind: 7mph
Humidity: 85%   Direction: 140°SE
Pressure: 29.92"   Gusts: NA
Location:  18.2667°N, 65.6476°W
Report Text: TJNR 311253Z AUTO 14006KT 10SM SCT026 28/26 A2992 RMK AO2 SLP131 T02830256 $
Loading
Personal Weather Stations






























Interactive Weather Map
Tropical Storm Tracking
New forecast layout! Learn more

10-Day Weather Forecast

Advertisements
Track Severe Weather on mobile